createdAt,value
2017-04-17T00:00:06.538Z,0
2017-04-17T00:00:47.417Z,0
2017-04-17T00:01:28.271Z,0
2017-04-17T00:02:09.144Z,0
2017-04-17T00:02:50.017Z,0
2017-04-17T00:03:30.899Z,0
2017-04-17T00:04:11.825Z,0
2017-04-17T00:04:52.691Z,0
2017-04-17T00:05:33.558Z,0
2017-04-17T00:06:14.434Z,0
2017-04-17T00:06:55.318Z,0
2017-04-17T00:07:36.190Z,0
2017-04-17T00:08:17.078Z,0
2017-04-17T00:08:57.968Z,0
2017-04-17T00:09:38.860Z,0
2017-04-17T00:10:19.720Z,0
2017-04-17T00:11:00.612Z,0
2017-04-17T00:11:41.446Z,0
2017-04-17T00:12:22.335Z,0
2017-04-17T00:13:03.166Z,0
2017-04-17T00:13:44.016Z,0
2017-04-17T00:14:24.869Z,0
2017-04-17T00:15:05.722Z,0
2017-04-17T00:15:46.608Z,0
2017-04-17T00:16:27.451Z,0
2017-04-17T00:17:08.389Z,0
2017-04-17T00:17:49.250Z,0
2017-04-17T00:18:30.133Z,0
2017-04-17T00:19:11.009Z,0
2017-04-17T00:19:51.877Z,0
2017-04-17T00:20:32.770Z,0
2017-04-17T00:21:13.641Z,0
2017-04-17T00:21:54.515Z,0
2017-04-17T00:22:35.389Z,0
2017-04-17T00:23:16.271Z,0
2017-04-17T00:23:57.171Z,0
2017-04-17T00:24:38.042Z,0
2017-04-17T00:25:18.900Z,0
2017-04-17T00:25:59.771Z,0
2017-04-17T00:26:40.638Z,0
2017-04-17T00:27:21.529Z,0
2017-04-17T00:28:02.402Z,0
2017-04-17T00:28:43.280Z,0
2017-04-17T00:29:24.169Z,0
2017-04-17T00:30:05.026Z,0
2017-04-17T00:30:45.900Z,0
2017-04-17T00:31:26.784Z,0
2017-04-17T00:32:07.658Z,0
2017-04-17T00:32:48.518Z,0
2017-04-17T00:33:29.392Z,0
2017-04-17T00:34:10.267Z,0
2017-04-17T00:34:51.148Z,0
2017-04-17T00:35:32.023Z,0
2017-04-17T00:36:13.616Z,0
2017-04-17T00:36:54.486Z,0
2017-04-17T00:37:35.361Z,0
2017-04-17T00:38:16.219Z,0
2017-04-17T00:38:57.080Z,0
2017-04-17T00:39:37.958Z,0
2017-04-17T00:40:18.840Z,0
2017-04-17T00:40:59.723Z,0
2017-04-17T00:41:40.656Z,0
2017-04-17T00:42:21.561Z,0
2017-04-17T00:43:02.434Z,0
2017-04-17T00:43:43.307Z,0
2017-04-17T00:44:24.199Z,0
2017-04-17T00:45:05.044Z,0
2017-04-17T00:45:45.892Z,0
2017-04-17T00:46:26.773Z,0
2017-04-17T00:47:07.656Z,0
2017-04-17T00:47:48.508Z,0
2017-04-17T00:48:29.366Z,0
2017-04-17T00:49:10.239Z,0
2017-04-17T00:49:51.115Z,0
2017-04-17T00:50:31.996Z,0
2017-04-17T00:51:12.873Z,0
2017-04-17T00:51:53.808Z,0
2017-04-17T00:52:34.671Z,0
2017-04-17T00:53:15.534Z,0
2017-04-17T00:53:56.404Z,0
2017-04-17T00:54:37.309Z,0
2017-04-17T00:55:18.172Z,0
2017-04-17T00:55:59.054Z,0
2017-04-17T00:56:39.936Z,0
2017-04-17T00:57:20.822Z,0
2017-04-17T00:58:01.683Z,0
2017-04-17T00:58:42.563Z,0
2017-04-17T00:59:23.460Z,0
2017-04-17T01:00:04.278Z,0
2017-04-17T01:00:45.141Z,0
2017-04-17T01:01:26.011Z,0
2017-04-17T01:02:06.892Z,0
2017-04-17T01:02:47.765Z,0
2017-04-17T01:03:28.647Z,0
2017-04-17T01:04:09.506Z,0
2017-04-17T01:04:50.371Z,0
2017-04-17T01:05:31.239Z,0
2017-04-17T01:06:12.099Z,0
2017-04-17T01:06:52.962Z,0
2017-04-17T01:07:33.834Z,0
2017-04-17T01:08:14.702Z,0
2017-04-17T01:08:55.584Z,0
2017-04-17T01:09:36.468Z,0
2017-04-17T01:10:17.346Z,0
2017-04-17T01:10:58.214Z,0
2017-04-17T01:11:39.088Z,0
2017-04-17T01:12:19.943Z,0
2017-04-17T01:13:00.810Z,0
2017-04-17T01:13:41.651Z,0
2017-04-17T01:14:22.506Z,0
2017-04-17T01:15:03.346Z,0
2017-04-17T01:15:44.213Z,0
2017-04-17T01:16:25.073Z,0
2017-04-17T01:17:05.959Z,0
2017-04-17T01:17:46.820Z,0
2017-04-17T01:18:27.697Z,0
2017-04-17T01:19:08.575Z,0
2017-04-17T01:19:49.468Z,0
2017-04-17T01:20:30.340Z,0
2017-04-17T01:21:11.199Z,0
2017-04-17T01:21:52.077Z,0
2017-04-17T01:22:32.946Z,0
2017-04-17T01:23:13.825Z,0
2017-04-17T01:23:54.724Z,0
2017-04-17T01:24:35.568Z,0
2017-04-17T01:25:16.429Z,0
2017-04-17T01:25:57.310Z,0
2017-04-17T01:26:38.160Z,0
2017-04-17T01:27:19.022Z,0
2017-04-17T01:27:59.881Z,0
2017-04-17T01:28:40.738Z,0
2017-04-17T01:29:21.575Z,0
2017-04-17T01:30:02.423Z,0
2017-04-17T01:30:43.293Z,0
2017-04-17T01:31:24.150Z,0
2017-04-17T01:32:05.012Z,0
2017-04-17T01:32:45.878Z,0
2017-04-17T01:33:26.732Z,0
2017-04-17T01:34:07.603Z,0
2017-04-17T01:34:48.481Z,0
2017-04-17T01:35:29.364Z,0
2017-04-17T01:36:10.232Z,0
2017-04-17T01:36:51.114Z,0
2017-04-17T01:37:31.976Z,0
2017-04-17T01:38:12.836Z,0
2017-04-17T01:38:53.705Z,0
2017-04-17T01:39:34.552Z,0
2017-04-17T01:40:15.417Z,0
2017-04-17T01:40:56.274Z,0
2017-04-17T01:41:37.133Z,0
2017-04-17T01:42:18.043Z,0
2017-04-17T01:42:58.914Z,0
2017-04-17T01:43:39.790Z,0
2017-04-17T01:44:20.639Z,0
2017-04-17T01:45:01.506Z,0
2017-04-17T01:45:42.378Z,0
2017-04-17T01:46:23.258Z,0
2017-04-17T01:47:04.124Z,0
2017-04-17T01:47:45.010Z,0
2017-04-17T01:48:25.878Z,0
2017-04-17T01:49:06.750Z,0
2017-04-17T01:49:47.623Z,0
2017-04-17T01:50:28.473Z,0
2017-04-17T01:51:09.337Z,0
2017-04-17T01:51:50.209Z,0
2017-04-17T01:52:31.071Z,0
2017-04-17T01:53:11.949Z,0
2017-04-17T01:53:52.837Z,0
2017-04-17T01:54:33.710Z,0
2017-04-17T01:55:14.579Z,0
2017-04-17T01:55:55.448Z,0
2017-04-17T01:56:36.313Z,0
2017-04-17T01:57:17.199Z,0
2017-04-17T01:57:58.086Z,0
2017-04-17T01:58:38.961Z,0
2017-04-17T01:59:19.826Z,0
2017-04-17T02:00:00.694Z,0
2017-04-17T02:00:41.576Z,0
2017-04-17T02:01:22.453Z,0
2017-04-17T02:02:03.340Z,0
2017-04-17T02:02:44.209Z,0
2017-04-17T02:03:25.094Z,0
2017-04-17T02:04:05.949Z,0
2017-04-17T02:04:46.837Z,0
2017-04-17T02:05:27.724Z,0
2017-04-17T02:06:08.600Z,0
2017-04-17T02:06:49.472Z,0
2017-04-17T02:07:30.349Z,0
2017-04-17T02:08:11.231Z,0
2017-04-17T02:08:52.113Z,0
2017-04-17T02:09:32.992Z,0
2017-04-17T02:10:13.863Z,0
2017-04-17T02:10:54.740Z,0
2017-04-17T02:11:35.611Z,0
2017-04-17T02:12:16.496Z,0
2017-04-17T02:12:57.385Z,0
2017-04-17T02:13:38.264Z,0
2017-04-17T02:14:19.125Z,0
2017-04-17T02:14:59.986Z,0
2017-04-17T02:15:40.867Z,0
2017-04-17T02:16:21.755Z,0
2017-04-17T02:17:02.626Z,0
2017-04-17T02:17:43.488Z,0
2017-04-17T02:18:24.357Z,0
2017-04-17T02:19:05.225Z,0
2017-04-17T02:19:46.106Z,0
2017-04-17T02:20:26.987Z,0
2017-04-17T02:21:07.890Z,0
2017-04-17T02:21:48.750Z,0
2017-04-17T02:22:29.622Z,0
2017-04-17T02:23:10.508Z,0
2017-04-17T02:23:51.386Z,0
2017-04-17T02:24:32.265Z,0
2017-04-17T02:25:13.146Z,0
2017-04-17T02:25:54.011Z,0
2017-04-17T02:26:34.894Z,0
2017-04-17T02:27:15.779Z,0
2017-04-17T02:27:56.677Z,0
2017-04-17T02:28:37.527Z,0
2017-04-17T02:29:18.381Z,0
2017-04-17T02:29:59.258Z,0
2017-04-17T02:30:40.134Z,0
2017-04-17T02:31:21.013Z,0
2017-04-17T02:32:01.888Z,0
2017-04-17T02:32:42.780Z,0
2017-04-17T02:33:23.645Z,0
2017-04-17T02:34:04.528Z,0
2017-04-17T02:34:45.404Z,0
2017-04-17T02:35:26.280Z,0
2017-04-17T02:36:07.156Z,0
2017-04-17T02:36:48.028Z,0
2017-04-17T02:37:28.899Z,0
2017-04-17T02:38:09.780Z,0
2017-04-17T02:38:50.656Z,0
2017-04-17T02:39:31.536Z,0
2017-04-17T02:40:12.407Z,0
2017-04-17T02:40:53.289Z,0
2017-04-17T02:41:34.164Z,0
2017-04-17T02:42:15.038Z,0
2017-04-17T02:42:55.918Z,0
2017-04-17T02:43:36.798Z,0
2017-04-17T02:44:17.679Z,0
2017-04-17T02:44:58.551Z,0
2017-04-17T02:45:39.478Z,0
2017-04-17T02:46:20.328Z,0
2017-04-17T02:47:01.215Z,0
2017-04-17T02:47:42.101Z,0
2017-04-17T02:48:22.984Z,0
2017-04-17T02:49:03.866Z,0
2017-04-17T02:49:44.752Z,0
2017-04-17T02:50:25.628Z,0
2017-04-17T02:51:06.499Z,0
2017-04-17T02:51:47.390Z,0
2017-04-17T02:52:28.273Z,0
2017-04-17T02:53:09.121Z,0
2017-04-17T02:53:49.977Z,0
2017-04-17T02:54:30.844Z,0
2017-04-17T02:55:11.712Z,0
2017-04-17T02:55:52.598Z,0
2017-04-17T02:56:33.476Z,0
2017-04-17T02:57:14.343Z,0
2017-04-17T02:57:55.248Z,0
2017-04-17T02:59:33.588Z,0
2017-04-17T03:00:14.462Z,0
2017-04-17T03:00:55.369Z,0
2017-04-17T03:01:36.255Z,0
2017-04-17T03:02:17.131Z,0
2017-04-17T03:02:58.004Z,0
2017-04-17T03:03:38.876Z,0
2017-04-17T03:04:19.739Z,0
2017-04-17T03:05:00.604Z,0
2017-04-17T03:05:41.467Z,0
2017-04-17T03:06:22.337Z,0
2017-04-17T03:07:03.224Z,0
2017-04-17T03:07:44.069Z,0
2017-04-17T03:08:24.939Z,0
2017-04-17T03:09:05.843Z,0
2017-04-17T03:09:46.723Z,0
2017-04-17T03:11:45.490Z,0
2017-04-17T03:12:26.346Z,0
2017-04-17T03:13:07.217Z,0
2017-04-17T03:13:48.083Z,0
2017-04-17T03:14:28.973Z,0
2017-04-17T03:15:09.856Z,0
2017-04-17T03:15:50.736Z,0
2017-04-17T03:16:31.602Z,0
2017-04-17T03:17:12.461Z,0
2017-04-17T03:17:53.329Z,0
2017-04-17T03:18:34.190Z,0
2017-04-17T03:19:15.055Z,0
2017-04-17T03:19:55.931Z,0
2017-04-17T03:20:36.810Z,0
2017-04-17T03:21:17.692Z,0
2017-04-17T03:21:58.561Z,0
2017-04-17T03:22:39.446Z,0
2017-04-17T03:23:20.325Z,0
2017-04-17T03:24:01.193Z,0
2017-04-17T03:24:42.087Z,0
2017-04-17T03:25:22.945Z,0
2017-04-17T03:27:37.522Z,0
2017-04-17T03:28:18.395Z,0
2017-04-17T03:28:59.271Z,0
2017-04-17T03:29:40.158Z,0
2017-04-17T03:30:21.036Z,0
2017-04-17T03:31:01.918Z,0
2017-04-17T03:31:42.804Z,0
2017-04-17T03:32:23.669Z,0
2017-04-17T03:33:04.549Z,4
2017-04-17T03:33:45.426Z,0
2017-04-17T03:34:26.328Z,4
2017-04-17T03:35:07.197Z,4
2017-04-17T03:35:48.077Z,4
2017-04-17T03:36:28.940Z,4
2017-04-17T03:37:09.821Z,0
2017-04-17T03:37:50.687Z,0
2017-04-17T03:38:31.557Z,0
2017-04-17T03:39:12.446Z,4
2017-04-17T03:39:53.308Z,4
2017-04-17T03:40:34.187Z,0
2017-04-17T03:41:15.064Z,4
2017-04-17T03:41:55.945Z,8
2017-04-17T03:42:36.822Z,4
2017-04-17T03:43:17.685Z,4
2017-04-17T03:43:58.582Z,4
2017-04-17T03:44:39.432Z,8
2017-04-17T03:45:20.312Z,8
2017-04-17T03:46:01.198Z,8
2017-04-17T03:46:42.076Z,8
2017-04-17T03:47:22.939Z,12
2017-04-17T03:48:03.797Z,8
2017-04-17T03:48:44.710Z,8
2017-04-17T03:49:25.563Z,12
2017-04-17T03:50:06.440Z,12
2017-04-17T03:50:47.292Z,12
2017-04-17T03:51:28.162Z,12
2017-04-17T03:52:09.031Z,12
2017-04-17T03:52:49.921Z,16
2017-04-17T03:53:30.805Z,20
2017-04-17T03:54:11.675Z,20
2017-04-17T03:54:52.554Z,24
2017-04-17T03:55:34.230Z,28
2017-04-17T03:56:15.110Z,24
2017-04-17T03:56:56.013Z,28
2017-04-17T03:57:36.913Z,28
2017-04-17T03:58:17.782Z,32
2017-04-17T03:58:58.643Z,36
2017-04-17T03:59:39.529Z,44
2017-04-17T04:00:20.408Z,44
2017-04-17T04:01:01.291Z,48
2017-04-17T04:01:42.169Z,60
2017-04-17T04:02:23.036Z,56
2017-04-17T04:03:03.897Z,68
2017-04-17T04:03:44.777Z,72
2017-04-17T04:04:25.660Z,88
2017-04-17T04:05:06.519Z,92
2017-04-17T04:05:47.403Z,92
2017-04-17T04:06:28.289Z,72
2017-04-17T04:07:09.157Z,84
2017-04-17T04:07:50.025Z,80
2017-04-17T04:08:30.902Z,84
2017-04-17T04:09:11.766Z,100
2017-04-17T04:09:52.635Z,116
2017-04-17T04:10:33.514Z,128
2017-04-17T04:11:14.398Z,160
2017-04-17T04:11:55.301Z,176
2017-04-17T04:12:36.171Z,184
2017-04-17T04:13:17.030Z,188
2017-04-17T04:13:57.877Z,200
2017-04-17T04:14:38.756Z,212
2017-04-17T04:15:19.623Z,240
2017-04-17T04:16:00.501Z,268
2017-04-17T04:16:41.386Z,276
2017-04-17T04:17:22.258Z,284
2017-04-17T04:18:03.128Z,300
2017-04-17T04:18:44.011Z,304
2017-04-17T04:19:24.875Z,328
2017-04-17T04:20:05.753Z,360
2017-04-17T04:20:46.635Z,380
2017-04-17T04:21:27.511Z,424
2017-04-17T04:22:08.396Z,460
2017-04-17T04:22:49.255Z,468
2017-04-17T04:23:30.136Z,464
2017-04-17T04:24:11.022Z,412
2017-04-17T04:24:51.907Z,436
2017-04-17T04:25:32.781Z,452
2017-04-17T04:26:13.657Z,484
2017-04-17T04:26:54.538Z,504
2017-04-17T04:27:35.414Z,536
2017-04-17T04:28:16.296Z,576
2017-04-17T04:28:57.157Z,628
2017-04-17T04:29:38.034Z,648
2017-04-17T04:30:18.900Z,720
2017-04-17T04:30:59.768Z,680
2017-04-17T04:31:40.645Z,664
2017-04-17T04:32:21.519Z,700
2017-04-17T04:33:02.397Z,728
2017-04-17T04:33:43.261Z,764
2017-04-17T04:34:24.141Z,808
2017-04-17T04:35:05.024Z,868
2017-04-17T04:35:45.914Z,884
2017-04-17T04:36:26.795Z,908
2017-04-17T04:37:07.672Z,944
2017-04-17T04:37:48.563Z,924
2017-04-17T04:38:29.455Z,924
2017-04-17T04:39:10.326Z,984
2017-04-17T04:39:51.197Z,1052
2017-04-17T04:40:32.065Z,1100
2017-04-17T04:41:12.937Z,1104
2017-04-17T04:41:53.815Z,988
2017-04-17T04:42:34.690Z,1080
2017-04-17T04:43:15.575Z,1240
2017-04-17T04:43:56.445Z,1312
2017-04-17T04:44:37.313Z,1112
2017-04-17T04:45:18.177Z,1188
2017-04-17T04:45:59.060Z,1344
2017-04-17T04:46:39.945Z,1196
2017-04-17T04:47:20.826Z,1204
2017-04-17T04:48:01.706Z,1280
2017-04-17T04:48:42.593Z,1784
2017-04-17T04:49:23.474Z,1860
2017-04-17T04:50:04.342Z,1324
2017-04-17T04:50:45.220Z,1524
2017-04-17T04:51:26.103Z,1924
2017-04-17T04:52:07.009Z,1396
2017-04-17T04:52:47.890Z,1704
2017-04-17T04:53:28.761Z,1572
2017-04-17T04:54:09.633Z,1484
2017-04-17T04:54:50.516Z,1396
2017-04-17T04:55:31.402Z,1368
2017-04-17T04:56:12.279Z,1416
2017-04-17T04:56:53.154Z,1204
2017-04-17T04:57:34.021Z,1404
2017-04-17T04:58:14.906Z,1628
2017-04-17T04:58:55.769Z,1660
2017-04-17T04:59:36.650Z,1704
2017-04-17T05:00:17.531Z,2004
2017-04-17T05:00:58.416Z,2352
2017-04-17T05:01:39.312Z,2388
2017-04-17T05:02:20.184Z,1796
2017-04-17T05:03:01.062Z,1408
2017-04-17T05:03:41.946Z,1152
2017-04-17T05:04:22.812Z,948
2017-04-17T05:05:03.698Z,932
2017-04-17T05:05:45.390Z,1056
2017-04-17T05:06:26.298Z,996
2017-04-17T05:07:07.181Z,1016
2017-04-17T05:07:48.051Z,1132
2017-04-17T05:08:28.948Z,1584
2017-04-17T05:09:09.824Z,1820
2017-04-17T05:09:50.698Z,2084
2017-04-17T05:10:31.580Z,2160
2017-04-17T05:11:12.457Z,2288
2017-04-17T05:11:53.337Z,2704
2017-04-17T05:12:34.221Z,3136
2017-04-17T05:13:15.084Z,1900
2017-04-17T05:13:55.967Z,1328
2017-04-17T05:14:36.843Z,1140
2017-04-17T05:15:17.729Z,1528
2017-04-17T05:15:58.588Z,2096
2017-04-17T05:16:39.452Z,2520
2017-04-17T05:17:20.318Z,1912
2017-04-17T05:18:01.193Z,1680
2017-04-17T05:18:42.073Z,1864
2017-04-17T05:19:22.954Z,1612
2017-04-17T05:20:03.836Z,1852
2017-04-17T05:20:44.718Z,2612
2017-04-17T05:21:25.603Z,2492
2017-04-17T05:22:06.486Z,1960
2017-04-17T05:22:47.352Z,1808
2017-04-17T05:23:28.230Z,1904
2017-04-17T05:24:09.111Z,2136
2017-04-17T05:24:49.993Z,1784
2017-04-17T05:25:30.877Z,2288
2017-04-17T05:26:11.755Z,1812
2017-04-17T05:26:52.620Z,1656
2017-04-17T05:27:33.486Z,1888
2017-04-17T05:28:14.354Z,2076
2017-04-17T05:28:55.229Z,2536
2017-04-17T05:29:36.108Z,3408
2017-04-17T05:30:16.996Z,3032
2017-04-17T05:30:57.889Z,2108
2017-04-17T05:31:38.757Z,2012
2017-04-17T05:32:19.640Z,2332
2017-04-17T05:33:00.519Z,2076
2017-04-17T05:33:41.382Z,2944
2017-04-17T05:34:22.256Z,2244
2017-04-17T05:35:03.177Z,1980
2017-04-17T05:35:44.059Z,1456
2017-04-17T05:36:24.937Z,1592
2017-04-17T05:37:05.799Z,2428
2017-04-17T05:37:46.681Z,1936
2017-04-17T05:38:27.556Z,1664
2017-04-17T05:39:08.436Z,2532
2017-04-17T05:39:49.304Z,2752
2017-04-17T05:40:30.183Z,2476
2017-04-17T05:41:11.794Z,2052
2017-04-17T05:41:51.946Z,2904
2017-04-17T05:42:32.822Z,4676
2017-04-17T05:43:13.701Z,5352
2017-04-17T05:43:54.564Z,4512
2017-04-17T05:44:35.436Z,2504
2017-04-17T05:45:16.296Z,2040
2017-04-17T05:45:57.172Z,3660
2017-04-17T05:46:38.056Z,3928
2017-04-17T05:47:18.914Z,3384
2017-04-17T05:47:59.802Z,3992
2017-04-17T05:48:40.687Z,4144
2017-04-17T05:49:21.566Z,3824
2017-04-17T05:50:02.458Z,3624
2017-04-17T05:50:43.342Z,3216
2017-04-17T05:51:24.221Z,3932
2017-04-17T05:52:05.100Z,4248
2017-04-17T05:52:46.027Z,3760
2017-04-17T05:53:26.870Z,5180
2017-04-17T05:54:07.749Z,5548
2017-04-17T05:54:48.620Z,3464
2017-04-17T05:55:29.491Z,2836
2017-04-17T05:56:10.371Z,4540
2017-04-17T05:56:51.241Z,3824
2017-04-17T05:57:32.104Z,3116
2017-04-17T05:58:12.994Z,3292
2017-04-17T05:58:53.859Z,5052
2017-04-17T05:59:34.721Z,6392
2017-04-17T06:00:15.592Z,4940
2017-04-17T06:00:56.475Z,5344
2017-04-17T06:01:37.344Z,5996
2017-04-17T06:02:18.226Z,5200
2017-04-17T06:02:59.127Z,6996
2017-04-17T06:03:40.021Z,5588
2017-04-17T06:04:20.920Z,4064
2017-04-17T06:05:01.781Z,5440
2017-04-17T06:05:42.644Z,4196
2017-04-17T06:06:23.510Z,4404
2017-04-17T06:07:04.380Z,4636
2017-04-17T06:07:45.260Z,4032
2017-04-17T06:08:26.150Z,3944
2017-04-17T06:09:07.005Z,4608
2017-04-17T06:09:47.885Z,4860
2017-04-17T06:10:28.747Z,4368
2017-04-17T06:11:09.618Z,4100
2017-04-17T06:11:50.492Z,3976
2017-04-17T06:12:31.346Z,3972
2017-04-17T06:13:12.237Z,4012
2017-04-17T06:13:53.116Z,3924
2017-04-17T06:14:34.004Z,3868
2017-04-17T06:15:14.863Z,4280
2017-04-17T06:15:55.733Z,4692
2017-04-17T06:16:36.613Z,4088
2017-04-17T06:17:17.501Z,3708
2017-04-17T06:17:58.372Z,5072
2017-04-17T06:18:39.243Z,6176
2017-04-17T06:19:20.095Z,4816
2017-04-17T06:20:00.963Z,3564
2017-04-17T06:20:41.835Z,3372
2017-04-17T06:21:22.692Z,3500
2017-04-17T06:22:03.566Z,4272
2017-04-17T06:22:44.447Z,6112
2017-04-17T06:23:25.325Z,6024
2017-04-17T06:24:06.198Z,4868
2017-04-17T06:24:47.065Z,4256
2017-04-17T06:25:27.938Z,3968
2017-04-17T06:26:08.789Z,3880
2017-04-17T06:26:49.676Z,3872
2017-04-17T06:27:30.563Z,3816
2017-04-17T06:28:11.466Z,3836
2017-04-17T06:28:52.313Z,3920
2017-04-17T06:29:33.175Z,3936
2017-04-17T06:30:14.032Z,4064
2017-04-17T06:30:54.900Z,3972
2017-04-17T06:31:35.773Z,3800
2017-04-17T06:32:16.665Z,3564
2017-04-17T06:32:57.542Z,3664
2017-04-17T06:33:38.422Z,3708
2017-04-17T06:34:19.276Z,3704
2017-04-17T06:35:00.149Z,3768
2017-04-17T06:35:41.023Z,4088
2017-04-17T06:36:21.919Z,4148
2017-04-17T06:37:02.802Z,3900
2017-04-17T06:37:43.670Z,3880
2017-04-17T06:38:24.551Z,3908
2017-04-17T06:39:05.388Z,3972
2017-04-17T06:39:46.267Z,4012
2017-04-17T06:40:27.206Z,3988
2017-04-17T06:41:08.085Z,4188
2017-04-17T06:41:48.971Z,4384
2017-04-17T06:42:29.869Z,4196
2017-04-17T06:43:10.746Z,4488
2017-04-17T06:43:51.634Z,6072
2017-04-17T06:44:32.510Z,5724
2017-04-17T06:45:13.390Z,5244
2017-04-17T06:45:54.270Z,4896
2017-04-17T06:46:35.137Z,5204
2017-04-17T06:47:16.013Z,5316
2017-04-17T06:47:56.910Z,5284
2017-04-17T06:48:37.803Z,5072
2017-04-17T06:49:18.669Z,5312
2017-04-17T06:49:59.536Z,5524
2017-04-17T06:50:40.483Z,4844
2017-04-17T06:51:21.346Z,4936
2017-04-17T06:52:02.220Z,5228
2017-04-17T06:52:43.098Z,5596
2017-04-17T06:53:23.987Z,5792
2017-04-17T06:54:04.874Z,5716
2017-04-17T06:54:45.747Z,5164
2017-04-17T06:55:26.616Z,4568
2017-04-17T06:56:07.497Z,4656
2017-04-17T06:56:48.385Z,4984
2017-04-17T06:57:29.262Z,4904
2017-04-17T06:58:10.137Z,4780
2017-04-17T06:58:51.015Z,4600
2017-04-17T06:59:31.913Z,4528
2017-04-17T07:00:12.793Z,4652
2017-04-17T07:00:53.661Z,4740
2017-04-17T07:01:34.539Z,4800
2017-04-17T07:02:15.423Z,5220
2017-04-17T07:02:56.304Z,5776
2017-04-17T07:03:37.185Z,5936
2017-04-17T07:04:18.060Z,6332
2017-04-17T07:04:58.930Z,6788
2017-04-17T07:05:39.805Z,6728
2017-04-17T07:06:20.696Z,6480
2017-04-17T07:07:01.578Z,5980
2017-04-17T07:07:42.489Z,6100
2017-04-17T07:08:23.389Z,7676
2017-04-17T07:09:04.257Z,9608
2017-04-17T07:09:45.137Z,9960
2017-04-17T07:10:26.022Z,8496
2017-04-17T07:11:06.909Z,6368
2017-04-17T07:11:47.788Z,5168
2017-04-17T07:12:28.673Z,5776
2017-04-17T07:13:09.553Z,5908
2017-04-17T07:13:50.448Z,6324
2017-04-17T07:14:31.323Z,8320
2017-04-17T07:15:12.193Z,11304
2017-04-17T07:15:53.066Z,11212
2017-04-17T07:16:33.943Z,10388
2017-04-17T07:17:14.822Z,8836
2017-04-17T07:17:55.712Z,6272
2017-04-17T07:18:36.579Z,7192
2017-04-17T07:19:17.445Z,8812
2017-04-17T07:19:58.340Z,10260
2017-04-17T07:20:39.264Z,11320
2017-04-17T07:21:20.147Z,11792
2017-04-17T07:22:01.030Z,11808
2017-04-17T07:22:41.933Z,11024
2017-04-17T07:23:22.807Z,10212
2017-04-17T07:24:03.674Z,7484
2017-04-17T07:24:44.557Z,6464
2017-04-17T07:25:25.434Z,3776
2017-04-17T07:26:06.310Z,3292
2017-04-17T07:26:47.186Z,3844
2017-04-17T07:27:28.053Z,5520
2017-04-17T07:28:08.937Z,6764
2017-04-17T07:28:49.824Z,7204
2017-04-17T07:29:30.711Z,6664
2017-04-17T07:30:11.603Z,5848
2017-04-17T07:30:52.498Z,5544
2017-04-17T07:31:33.390Z,6408
2017-04-17T07:32:14.260Z,7412
2017-04-17T07:32:55.130Z,8176
2017-04-17T07:33:36.018Z,8508
2017-04-17T07:34:16.910Z,8780
2017-04-17T07:34:57.778Z,9072
2017-04-17T07:35:38.654Z,9696
2017-04-17T07:36:19.555Z,9220
2017-04-17T07:37:00.442Z,9048
2017-04-17T07:37:41.314Z,9620
2017-04-17T07:38:22.173Z,10240
2017-04-17T07:39:03.064Z,11020
2017-04-17T07:39:43.951Z,11612
2017-04-17T07:40:24.837Z,11700
2017-04-17T07:41:05.708Z,15936
2017-04-17T07:41:46.588Z,16928
2017-04-17T07:42:27.457Z,12320
2017-04-17T07:43:08.342Z,12456
2017-04-17T07:43:49.224Z,29408
2017-04-17T07:44:30.095Z,18304
2017-04-17T07:45:10.960Z,13828
2017-04-17T07:45:51.852Z,12332
2017-04-17T07:46:32.740Z,30752
2017-04-17T07:47:13.615Z,18272
2017-04-17T07:47:54.493Z,10612
2017-04-17T07:48:35.366Z,11952
2017-04-17T07:49:16.256Z,7740
2017-04-17T07:49:57.140Z,8580
2017-04-17T07:50:38.018Z,6980
2017-04-17T07:51:18.894Z,30784
2017-04-17T07:51:59.759Z,8220
2017-04-17T07:52:40.689Z,22624
2017-04-17T07:53:21.681Z,15808
2017-04-17T07:54:02.549Z,14488
2017-04-17T07:54:43.442Z,17472
2017-04-17T07:55:24.331Z,51136
2017-04-17T07:56:05.204Z,14552
2017-04-17T07:56:46.087Z,16896
2017-04-17T07:57:27.017Z,17632
2017-04-17T07:58:07.875Z,20288
2017-04-17T07:58:48.748Z,41536
2017-04-17T07:59:29.634Z,37664
2017-04-17T08:00:10.522Z,37408
2017-04-17T08:00:51.394Z,38656
2017-04-17T08:01:32.274Z,41792
2017-04-17T08:02:13.154Z,42272
2017-04-17T08:02:54.059Z,44544
2017-04-17T08:03:34.935Z,46368
2017-04-17T08:04:15.825Z,52992
2017-04-17T08:04:56.714Z,54400
2017-04-17T08:05:37.598Z,52352
2017-04-17T08:06:18.472Z,50432
2017-04-17T08:06:59.361Z,30912
2017-04-17T08:07:40.264Z,8452
2017-04-17T08:08:21.147Z,8600
2017-04-17T08:09:02.017Z,10068
2017-04-17T08:09:43.040Z,47712
2017-04-17T08:10:24.374Z,7196
2017-04-17T08:11:05.772Z,5240
2017-04-17T08:11:47.179Z,5052
2017-04-17T08:12:28.565Z,6128
2017-04-17T08:13:09.942Z,7580
2017-04-17T08:13:51.369Z,10064
2017-04-17T08:14:32.750Z,49056
2017-04-17T08:15:14.120Z,28320
2017-04-17T08:15:55.500Z,16928
2017-04-17T08:16:36.855Z,28128
2017-04-17T08:17:18.261Z,42048
2017-04-17T08:17:59.613Z,39808
2017-04-17T08:18:40.996Z,32768
2017-04-17T08:19:22.392Z,17504
2017-04-17T08:20:03.797Z,12848
2017-04-17T08:20:45.167Z,8720
2017-04-17T08:21:26.561Z,10364
2017-04-17T08:22:07.919Z,12368
2017-04-17T08:22:49.301Z,15744
2017-04-17T08:23:30.665Z,19296
2017-04-17T08:24:12.052Z,14548
2017-04-17T08:24:53.402Z,14228
2017-04-17T08:25:34.806Z,15872
2017-04-17T08:26:16.216Z,16768
2017-04-17T08:26:57.613Z,14744
2017-04-17T08:27:38.962Z,11020
2017-04-17T08:28:20.233Z,13844
2017-04-17T08:29:01.503Z,5876
2017-04-17T08:29:42.710Z,5424
2017-04-17T08:30:23.904Z,6000
2017-04-17T08:31:05.129Z,9080
2017-04-17T08:31:46.338Z,11044
2017-04-17T08:32:27.662Z,31232
2017-04-17T08:33:09.005Z,21952
2017-04-17T08:33:50.335Z,6848
2017-04-17T08:34:31.676Z,6772
2017-04-17T08:35:12.965Z,9664
2017-04-17T08:35:54.181Z,24448
2017-04-17T08:36:35.418Z,30112
2017-04-17T08:37:16.565Z,19712
2017-04-17T08:37:57.778Z,9732
2017-04-17T08:38:39.046Z,10540
2017-04-17T08:39:20.268Z,20512
2017-04-17T08:40:01.436Z,52512
2017-04-17T08:40:42.540Z,37824
2017-04-17T08:41:23.601Z,20832
2017-04-17T08:42:04.665Z,61088
2017-04-17T08:42:45.779Z,51520
2017-04-17T08:43:26.847Z,43296
2017-04-17T08:44:07.855Z,50176
2017-04-17T08:44:48.911Z,40768
2017-04-17T08:45:29.921Z,48224
2017-04-17T08:46:10.927Z,50176
2017-04-17T08:46:51.943Z,64512
2017-04-17T08:47:33.179Z,22592
2017-04-17T08:49:47.975Z,39072
2017-04-17T08:50:29.045Z,72256
2017-04-17T08:51:10.121Z,53984
2017-04-17T08:51:51.160Z,14124
2017-04-17T08:52:32.179Z,59296
2017-04-17T08:53:13.182Z,43648
2017-04-17T08:53:54.239Z,11324
2017-04-17T08:54:35.256Z,8836
2017-04-17T08:55:16.339Z,48288
2017-04-17T08:55:57.355Z,19520
2017-04-17T08:56:38.375Z,15048
2017-04-17T08:57:19.323Z,53280
2017-04-17T08:58:00.280Z,14468
2017-04-17T08:58:41.163Z,7848
2017-04-17T08:59:22.064Z,7260
2017-04-17T09:00:02.946Z,7204
2017-04-17T09:00:43.826Z,8172
2017-04-17T09:01:24.710Z,63232
2017-04-17T09:02:05.616Z,62976
2017-04-17T09:02:46.508Z,73280
2017-04-17T09:04:24.881Z,12680
2017-04-17T09:05:05.757Z,13652
2017-04-17T09:05:46.646Z,10848
2017-04-17T09:06:27.547Z,13300
2017-04-17T09:07:08.517Z,9716
2017-04-17T09:07:49.369Z,10136
2017-04-17T09:08:30.231Z,9248
2017-04-17T09:09:11.104Z,7932
2017-04-17T09:09:51.996Z,8052
2017-04-17T09:10:32.863Z,8172
2017-04-17T09:11:13.744Z,9368
2017-04-17T09:11:54.621Z,8584
2017-04-17T09:12:35.495Z,8848
2017-04-17T09:13:16.387Z,9308
2017-04-17T09:13:57.284Z,9596
2017-04-17T09:14:38.152Z,11368
2017-04-17T09:15:19.032Z,10492
2017-04-17T09:15:59.931Z,9956
2017-04-17T09:16:40.808Z,9776
2017-04-17T09:17:21.684Z,9524
2017-04-17T09:18:02.548Z,9580
2017-04-17T09:18:43.421Z,9920
2017-04-17T09:19:24.309Z,12824
2017-04-17T09:20:05.189Z,11332
2017-04-17T09:20:46.080Z,11296
2017-04-17T09:21:26.941Z,10920
2017-04-17T09:22:07.818Z,10948
2017-04-17T09:22:48.704Z,11520
2017-04-17T09:23:29.583Z,9684
2017-04-17T09:24:10.471Z,9340
2017-04-17T09:24:51.341Z,10228
2017-04-17T09:25:32.213Z,10704
2017-04-17T09:26:13.105Z,11832
2017-04-17T09:26:53.981Z,15744
2017-04-17T09:27:34.887Z,15392
2017-04-17T09:28:15.774Z,10432
2017-04-17T09:28:56.667Z,12880
2017-04-17T09:29:37.538Z,9292
2017-04-17T09:30:18.408Z,9204
2017-04-17T09:30:59.292Z,8756
2017-04-17T09:31:40.174Z,9464
2017-04-17T09:32:21.061Z,9620